Time;durP1;ratioP1;P1;durP2;ratioP2;P2;SDS_P1;SDS_P2;PMS_P1;PMS_P2;Temp;Humidity;BMP_temperature;BMP_pressure;BME280_temperature;BME280_humidity;BME280_pressure;Samples;Min_cycle;Max_cycle;Signal;HPM_P1;HPM_P2
2023/12/21 00:02:16;;;;;;;4.30;1.92;;;4.30;64.00;;;;;;4931351;28;114390;-84
2023/12/21 00:04:44;;;;;;;4.22;1.90;;;4.30;64.00;;;;;;4947087;28;115074;-84
2023/12/21 00:07:11;;;;;;;4.63;2.33;;;4.30;64.10;;;;;;4947008;28;114840;-84
2023/12/21 00:09:39;;;;;;;4.18;1.85;;;4.30;64.10;;;;;;4946761;28;114549;-84
2023/12/21 00:12:06;;;;;;;6.18;2.20;;;4.30;64.00;;;;;;4948454;28;114243;-83
2023/12/21 00:14:33;;;;;;;5.45;2.30;;;4.30;64.00;;;;;;4929867;28;115052;-84
2023/12/21 00:17:01;;;;;;;4.32;1.98;;;4.40;64.00;;;;;;4945372;28;115667;-83
2023/12/21 00:19:29;;;;;;;2.95;1.83;;;4.40;63.90;;;;;;4930788;28;114221;-83
2023/12/21 00:21:57;;;;;;;3.58;1.58;;;4.40;64.00;;;;;;4931182;28;114540;-83
2023/12/21 00:24:24;;;;;;;4.05;1.70;;;4.40;64.00;;;;;;4946484;28;115113;-83
2023/12/21 00:26:51;;;;;;;3.58;1.60;;;4.30;64.00;;;;;;4945924;28;114598;-83
2023/12/21 00:29:19;;;;;;;3.17;1.40;;;4.30;64.00;;;;;;4945435;28;114462;-83
2023/12/21 00:31:46;;;;;;;3.00;1.60;;;4.30;63.90;;;;;;4946232;28;114383;-83
2023/12/21 00:34:14;;;;;;;3.80;1.70;;;4.30;63.90;;;;;;4946614;28;115125;-83
2023/12/21 00:36:42;;;;;;;3.78;1.55;;;4.30;64.00;;;;;;4945232;28;114593;-83
2023/12/21 00:39:10;;;;;;;6.68;2.00;;;4.30;64.00;;;;;;4946185;28;114193;-83
2023/12/21 00:41:37;;;;;;;3.28;1.90;;;4.30;64.00;;;;;;4947211;28;114263;-83
2023/12/21 00:44:05;;;;;;;3.78;1.77;;;4.30;64.10;;;;;;4944941;28;115029;-83
2023/12/21 00:46:33;;;;;;;3.72;1.90;;;4.30;64.10;;;;;;4945244;28;117635;-84
2023/12/21 00:49:00;;;;;;;4.53;1.75;;;4.30;64.20;;;;;;4947141;28;114326;-82
2023/12/21 00:51:28;;;;;;;3.53;1.60;;;4.30;64.20;;;;;;4946875;28;114427;-83
2023/12/21 00:53:55;;;;;;;4.05;1.80;;;4.30;64.20;;;;;;4944874;28;115100;-83
2023/12/21 00:56:22;;;;;;;5.07;2.00;;;4.30;64.20;;;;;;4944984;28;114708;-82
2023/12/21 00:58:50;;;;;;;3.75;1.50;;;4.30;64.20;;;;;;4945549;28;114544;-83
2023/12/21 01:01:17;;;;;;;2.70;1.67;;;4.30;64.20;;;;;;4945644;28;114318;-83
2023/12/21 01:03:44;;;;;;;3.65;1.92;;;4.30;64.20;;;;;;4944738;28;115280;-83
2023/12/21 01:06:12;;;;;;;2.97;1.70;;;4.30;64.20;;;;;;4944796;28;114788;-83
2023/12/21 01:08:39;;;;;;;2.65;1.40;;;4.30;64.20;;;;;;4946673;28;114337;-83
2023/12/21 01:11:06;;;;;;;2.92;1.38;;;4.30;64.20;;;;;;4947539;28;114022;-83
2023/12/21 01:13:34;;;;;;;2.25;1.42;;;4.30;64.20;;;;;;4946141;28;115797;-83
2023/12/21 01:16:01;;;;;;;3.00;1.48;;;4.30;64.20;;;;;;4944210;28;116156;-83
2023/12/21 01:18:29;;;;;;;2.17;1.38;;;4.30;64.30;;;;;;4945982;28;114346;-83
2023/12/21 01:20:56;;;;;;;2.42;1.25;;;4.40;64.10;;;;;;4946863;28;114600;-83
2023/12/21 01:23:24;;;;;;;2.97;1.40;;;4.40;64.10;;;;;;4944414;28;115091;-83
2023/12/21 01:25:51;;;;;;;5.40;2.10;;;4.40;64.20;;;;;;4960950;28;114757;-82
2023/12/21 01:28:18;;;;;;;4.18;1.52;;;4.40;64.20;;;;;;4944960;28;114324;-83
2023/12/21 01:30:46;;;;;;;3.42;1.70;;;4.40;64.10;;;;;;4946566;28;114194;-84
2023/12/21 01:33:13;;;;;;;3.88;1.70;;;4.40;64.00;;;;;;4945444;28;117083;-84
2023/12/21 01:35:40;;;;;;;6.43;1.65;;;4.40;64.00;;;;;;4932224;28;114940;-83
2023/12/21 01:38:08;;;;;;;3.28;1.50;;;4.40;64.00;;;;;;4948291;28;114289;-83
2023/12/21 01:40:35;;;;;;;2.33;1.40;;;4.50;63.90;;;;;;4969383;28;113995;-82
2023/12/21 01:43:03;;;;;;;2.88;1.48;;;4.50;63.90;;;;;;4951003;28;116007;-83
2023/12/21 01:45:30;;;;;;;3.30;1.65;;;4.50;63.90;;;;;;4947539;28;114687;-83
2023/12/21 01:47:57;;;;;;;3.70;1.60;;;4.50;63.80;;;;;;4945750;28;114419;-83
2023/12/21 01:50:25;;;;;;;3.17;1.55;;;4.50;63.80;;;;;;4946256;28;114280;-83
2023/12/21 01:52:55;;;;;;;4.63;1.50;;;4.50;63.80;;;;;;4928198;28;116428;-82
2023/12/21 01:55:22;;;;;;;3.03;1.60;;;4.50;63.80;;;;;;4946328;28;114678;-82
2023/12/21 01:57:50;;;;;;;3.90;1.77;;;4.50;63.80;;;;;;4932404;28;114264;-82
2023/12/21 02:00:17;;;;;;;3.30;1.70;;;4.50;63.90;;;;;;4932983;28;114219;-82
2023/12/21 02:02:45;;;;;;;3.03;1.55;;;4.50;63.90;;;;;;4931428;28;115611;-83
2023/12/21 02:05:13;;;;;;;2.58;1.27;;;4.50;63.70;;;;;;4947446;28;114665;-83
2023/12/21 02:07:42;;;;;;;2.92;1.40;;;4.50;63.70;;;;;;4948589;28;114578;-82
2023/12/21 02:10:09;;;;;;;2.53;1.10;;;4.50;63.70;;;;;;4949236;28;114195;-84
2023/12/21 02:12:37;;;;;;;5.40;1.85;;;4.40;63.60;;;;;;4947165;28;115378;-83
2023/12/21 02:15:06;;;;;;;3.90;1.92;;;4.40;63.60;;;;;;4947172;28;114583;-84
2023/12/21 02:17:33;;;;;;;2.78;1.17;;;4.50;63.80;;;;;;4947808;28;114372;-82
2023/12/21 02:20:01;;;;;;;3.85;1.60;;;4.50;63.70;;;;;;4932053;28;114704;-82
2023/12/21 02:22:28;;;;;;;2.63;1.20;;;4.40;63.70;;;;;;4930841;28;115054;-83
2023/12/21 02:24:56;;;;;;;2.53;1.13;;;4.50;63.70;;;;;;4948677;28;115041;-83
2023/12/21 02:27:23;;;;;;;2.50;1.17;;;4.40;63.50;;;;;;4931710;28;114315;-82
2023/12/21 02:29:50;;;;;;;3.75;1.30;;;4.40;63.50;;;;;;4931842;28;114541;-82
2023/12/21 02:32:18;;;;;;;2.72;1.25;;;4.40;63.50;;;;;;4946200;28;116413;-82
2023/12/21 02:34:45;;;;;;;2.47;1.08;;;4.40;63.50;;;;;;4930906;28;115040;-82
2023/12/21 02:37:12;;;;;;;3.08;1.30;;;4.40;63.60;;;;;;4949048;28;114196;-82
2023/12/21 02:39:40;;;;;;;3.08;1.20;;;4.40;63.60;;;;;;4949057;28;114472;-82
2023/12/21 02:42:07;;;;;;;1.60;1.00;;;4.50;63.60;;;;;;4946839;28;115048;-83
2023/12/21 02:44:34;;;;;;;1.95;1.20;;;4.50;63.60;;;;;;4947281;28;116262;-83
2023/12/21 02:47:02;;;;;;;2.35;1.38;;;4.40;63.50;;;;;;4984087;28;114574;-82
2023/12/21 02:49:29;;;;;;;2.08;1.05;;;4.40;63.50;;;;;;5000366;28;114639;-83
2023/12/21 02:51:56;;;;;;;4.60;1.40;;;4.40;63.40;;;;;;4967348;28;115672;-83
2023/12/21 02:54:24;;;;;;;2.30;1.23;;;4.40;63.30;;;;;;4982664;28;114693;-82
2023/12/21 02:56:51;;;;;;;2.10;1.02;;;4.40;63.40;;;;;;4999285;28;114512;-83
2023/12/21 02:59:19;;;;;;;2.75;1.38;;;4.40;63.40;;;;;;4968329;28;114373;-83
2023/12/21 03:01:46;;;;;;;1.90;1.05;;;4.40;63.40;;;;;;4998757;28;115278;-82
2023/12/21 03:04:13;;;;;;;2.83;1.38;;;4.40;63.30;;;;;;4965794;28;117023;-81
2023/12/21 03:06:41;;;;;;;3.38;1.35;;;4.40;63.40;;;;;;4968103;28;114348;-83
2023/12/21 03:09:09;;;;;;;2.95;1.27;;;4.40;63.40;;;;;;4965802;28;114627;-82
2023/12/21 03:11:36;;;;;;;1.58;1.00;;;4.40;63.40;;;;;;4966751;28;115673;-81
2023/12/21 03:14:04;;;;;;;3.05;1.20;;;4.40;63.40;;;;;;4982584;28;116474;-82
2023/12/21 03:16:33;;;;;;;2.17;1.25;;;4.40;63.40;;;;;;4967729;28;114408;-82
2023/12/21 03:19:00;;;;;;;2.40;1.40;;;4.30;63.50;;;;;;4968883;28;114662;-83
2023/12/21 03:21:28;;;;;;;4.05;1.00;;;4.30;63.60;;;;;;4967444;28;116525;-83
2023/12/21 03:23:56;;;;;;;2.45;1.10;;;4.40;63.50;;;;;;4967416;28;114681;-84
2023/12/21 03:26:24;;;;;;;1.80;1.10;;;4.40;63.50;;;;;;4968401;28;114301;-84
2023/12/21 03:28:51;;;;;;;2.67;1.23;;;4.40;63.60;;;;;;4972897;28;114378;-82
2023/12/21 03:31:20;;;;;;;2.72;1.10;;;4.40;63.50;;;;;;4975184;28;116277;-83
2023/12/21 03:33:47;;;;;;;2.50;1.20;;;4.30;63.50;;;;;;4970977;28;116017;-82
2023/12/21 03:36:14;;;;;;;2.72;0.93;;;4.30;63.60;;;;;;4983851;28;114394;-82
2023/12/21 03:38:42;;;;;;;2.30;1.27;;;4.30;63.60;;;;;;4968360;28;114596;-82
2023/12/21 03:41:09;;;;;;;2.17;1.10;;;4.30;63.60;;;;;;4981858;28;115154;-82
2023/12/21 03:43:36;;;;;;;2.83;1.45;;;4.30;63.60;;;;;;4982280;28;114676;-82
2023/12/21 03:46:09;;;;;;;2.28;1.05;;;4.30;63.60;;;;;;4982482;28;114621;-81
2023/12/21 03:48:36;;;;;;;3.38;1.30;;;4.30;63.50;;;;;;4982994;28;114368;-82
2023/12/21 03:51:04;;;;;;;2.67;1.17;;;4.30;63.50;;;;;;4966626;28;116143;-82
2023/12/21 03:53:31;;;;;;;3.03;1.33;;;4.30;63.50;;;;;;4998203;28;114551;-82
2023/12/21 03:55:59;;;;;;;1.77;0.93;;;4.30;63.50;;;;;;4967192;28;114534;-83
2023/12/21 03:58:26;;;;;;;2.35;1.10;;;4.20;63.50;;;;;;4999005;28;115180;-83
2023/12/21 04:00:54;;;;;;;2.38;1.20;;;4.20;63.60;;;;;;4965164;28;116473;-84
2023/12/21 04:03:21;;;;;;;2.15;1.10;;;4.20;63.60;;;;;;4966791;28;114714;-84
2023/12/21 04:05:48;;;;;;;2.78;1.30;;;4.20;63.60;;;;;;4966509;28;114576;-82
2023/12/21 04:08:21;;;;;;;1.77;0.95;;;4.20;63.60;;;;;;4965926;28;114545;-81
2023/12/21 04:10:48;;;;;;;2.60;1.25;;;4.20;63.60;;;;;;4996461;28;115340;-81
2023/12/21 04:13:15;;;;;;;1.88;1.00;;;4.30;63.60;;;;;;4965328;28;114679;-82
2023/12/21 04:15:43;;;;;;;2.13;0.90;;;4.30;63.50;;;;;;4967327;28;114429;-84
2023/12/21 04:18:10;;;;;;;1.98;1.05;;;4.30;63.60;;;;;;4966640;28;114310;-83
2023/12/21 04:20:37;;;;;;;3.10;0.93;;;4.40;63.60;;;;;;4966335;28;115053;-83
2023/12/21 04:23:05;;;;;;;1.40;1.00;;;4.40;63.60;;;;;;4966370;28;114659;-83
2023/12/21 04:25:32;;;;;;;2.33;0.90;;;4.50;63.50;;;;;;4982452;28;114360;-83
2023/12/21 04:28:01;;;;;;;2.53;1.30;;;4.40;63.50;;;;;;4967354;28;114390;-83
2023/12/21 04:30:29;;;;;;;3.50;1.00;;;4.40;63.60;;;;;;4966141;28;115060;-83
2023/12/21 04:32:56;;;;;;;1.92;1.02;;;4.40;63.50;;;;;;4981018;28;115921;-82
2023/12/21 04:35:24;;;;;;;1.80;0.93;;;4.40;63.50;;;;;;4966446;28;114239;-82
2023/12/21 04:37:51;;;;;;;2.80;1.10;;;4.50;63.50;;;;;;4967227;28;114219;-82
2023/12/21 04:40:18;;;;;;;3.20;1.02;;;4.50;63.50;;;;;;4997554;28;115011;-83
2023/12/21 04:42:51;;;;;;;1.45;0.88;;;4.50;63.40;;;;;;4997619;28;114789;-83
2023/12/21 04:45:19;;;;;;;2.05;0.90;;;4.50;63.40;;;;;;4997042;28;114212;-83
2023/12/21 04:47:46;;;;;;;1.25;0.70;;;4.50;63.40;;;;;;4982075;28;114435;-83
2023/12/21 04:50:16;;;;;;;1.35;0.70;;;4.50;63.20;;;;;;4965882;28;115156;-83
2023/12/21 04:52:44;;;;;;;1.75;0.88;;;4.60;63.20;;;;;;4966145;28;115304;-84
2023/12/21 04:55:12;;;;;;;1.80;0.90;;;4.60;63.10;;;;;;4981786;28;115092;-82
2023/12/21 04:57:39;;;;;;;2.30;1.10;;;4.60;63.10;;;;;;4966752;28;114197;-83
2023/12/21 05:00:07;;;;;;;1.38;0.77;;;4.60;63.10;;;;;;4980305;28;115114;-83
2023/12/21 05:02:35;;;;;;;2.30;0.90;;;4.60;63.00;;;;;;4991451;28;117409;-82
2023/12/21 05:05:02;;;;;;;1.23;0.80;;;4.60;63.10;;;;;;4968143;28;114208;-83
2023/12/21 05:07:29;;;;;;;1.45;0.65;;;4.60;62.90;;;;;;4982181;28;114344;-83
2023/12/21 05:09:59;;;;;;;2.10;1.10;;;4.60;62.70;;;;;;4980967;28;115103;-83
2023/12/21 05:12:26;;;;;;;2.50;1.00;;;4.60;62.80;;;;;;4965843;28;115284;-83
2023/12/21 05:14:54;;;;;;;2.30;0.95;;;4.60;63.00;;;;;;4998606;28;114344;-83
2023/12/21 05:17:39;;;;;;;1.70;0.90;;;4.60;63.00;;;;;;4987589;28;114132;-83
2023/12/21 05:20:07;;;;;;;1.30;0.70;;;4.60;63.10;;;;;;4950068;28;114265;-83
2023/12/21 05:22:34;;;;;;;2.05;0.85;;;4.60;63.20;;;;;;4945318;28;116002;-83
2023/12/21 05:25:02;;;;;;;1.95;0.93;;;4.60;63.20;;;;;;4913218;28;114505;-83
2023/12/21 05:27:30;;;;;;;2.40;0.90;;;4.60;63.30;;;;;;4946783;28;114270;-83
2023/12/21 05:29:57;;;;;;;1.92;1.00;;;4.50;63.20;;;;;;4947464;28;117612;-83
2023/12/21 05:32:25;;;;;;;1.83;0.82;;;4.60;63.20;;;;;;4948583;28;115138;-82
2023/12/21 05:34:52;;;;;;;1.52;0.82;;;4.60;63.20;;;;;;4951028;28;114197;-82
2023/12/21 05:37:19;;;;;;;1.90;0.85;;;4.60;63.10;;;;;;4951053;28;114142;-82
2023/12/21 05:39:49;;;;;;;1.70;0.70;;;4.60;63.10;;;;;;4950094;28;115388;-82
2023/12/21 05:42:16;;;;;;;1.20;0.60;;;4.60;63.20;;;;;;4949711;28;114721;-82
2023/12/21 05:44:44;;;;;;;1.42;0.70;;;4.60;63.10;;;;;;4981675;28;114440;-83
2023/12/21 05:47:11;;;;;;;2.17;0.70;;;4.60;63.10;;;;;;4949504;28;114636;-83
2023/12/21 05:49:38;;;;;;;1.15;0.65;;;4.60;63.10;;;;;;4957220;28;115052;-84
2023/12/21 05:52:06;;;;;;;1.67;0.73;;;4.60;63.10;;;;;;4955397;28;115221;-84
2023/12/21 05:54:33;;;;;;;1.23;0.50;;;4.60;63.10;;;;;;4939972;28;114546;-84
2023/12/21 05:57:02;;;;;;;1.17;0.50;;;4.60;63.10;;;;;;4958153;28;114531;-83
2023/12/21 05:59:29;;;;;;;1.05;0.47;;;4.60;63.20;;;;;;4956681;28;116707;-84
2023/12/21 06:01:59;;;;;;;1.20;0.60;;;4.60;63.10;;;;;;4955993;28;115248;-84
2023/12/21 06:04:27;;;;;;;1.00;0.47;;;4.60;63.10;;;;;;4959813;28;114975;-82
2023/12/21 06:06:55;;;;;;;1.05;0.50;;;4.60;63.00;;;;;;4940812;28;114700;-82
2023/12/21 06:09:22;;;;;;;0.73;0.47;;;4.60;63.10;;;;;;4956754;28;116314;-84
2023/12/21 06:11:51;;;;;;;1.08;0.55;;;4.60;63.10;;;;;;4953727;28;114672;-84
2023/12/21 06:14:19;;;;;;;1.65;0.75;;;4.60;63.00;;;;;;4958152;28;114453;-82
2023/12/21 06:16:46;;;;;;;1.65;0.88;;;4.60;63.00;;;;;;4959721;28;114803;-82
2023/12/21 06:19:15;;;;;;;2.33;0.90;;;4.70;63.00;;;;;;4939649;28;116719;-82
2023/12/21 06:21:46;;;;;;;2.35;0.50;;;4.70;63.00;;;;;;4955775;28;114608;-83
2023/12/21 06:24:13;;;;;;;1.27;0.57;;;4.70;62.90;;;;;;4955534;28;114491;-84
2023/12/21 06:26:42;;;;;;;1.27;0.52;;;4.70;62.80;;;;;;4957736;28;114694;-83
2023/12/21 06:29:10;;;;;;;1.42;0.50;;;4.70;62.70;;;;;;4954119;28;115032;-83
2023/12/21 06:31:37;;;;;;;1.05;0.30;;;4.70;62.80;;;;;;4956781;28;115250;-83
2023/12/21 06:34:05;;;;;;;1.00;0.50;;;4.70;62.80;;;;;;4958206;28;114543;-84
2023/12/21 06:36:32;;;;;;;1.67;0.70;;;4.70;62.90;;;;;;4940396;28;114395;-82
2023/12/21 06:39:00;;;;;;;1.60;0.80;;;4.70;63.00;;;;;;4957883;28;115170;-83
2023/12/21 06:41:28;;;;;;;3.00;1.25;;;4.70;63.00;;;;;;4956353;28;117130;-83
2023/12/21 06:43:55;;;;;;;1.23;0.50;;;4.70;63.00;;;;;;4941301;28;114212;-83
2023/12/21 06:46:23;;;;;;;0.85;0.45;;;4.70;62.80;;;;;;4932432;28;114471;-83
2023/12/21 06:48:50;;;;;;;0.98;0.50;;;4.70;62.90;;;;;;4947569;28;115043;-83
2023/12/21 06:51:19;;;;;;;0.82;0.50;;;4.70;63.00;;;;;;4954671;28;114935;-83
2023/12/21 06:53:46;;;;;;;2.08;0.80;;;4.70;63.20;;;;;;4955728;28;114290;-82
2023/12/21 06:56:13;;;;;;;1.27;0.63;;;4.70;63.30;;;;;;4958753;28;114615;-83
2023/12/21 06:58:59;;;;;;;0.88;0.47;;;4.70;63.40;;;;;;4954512;28;115486;-83
2023/12/21 07:01:27;;;;;;;1.20;0.60;;;4.70;63.60;;;;;;4955431;28;115198;-82
2023/12/21 07:03:55;;;;;;;1.45;0.65;;;4.70;63.80;;;;;;4956402;28;114400;-83
2023/12/21 07:06:23;;;;;;;0.82;0.52;;;4.70;64.00;;;;;;4955751;28;114632;-82
2023/12/21 07:08:51;;;;;;;1.60;0.80;;;4.70;64.20;;;;;;4923859;28;118118;-82
2023/12/21 07:11:19;;;;;;;1.38;0.60;;;4.70;64.10;;;;;;4956039;28;114597;-82
2023/12/21 07:13:46;;;;;;;1.55;0.70;;;4.70;64.10;;;;;;4960723;28;114883;-81
2023/12/21 07:16:13;;;;;;;1.50;0.60;;;4.70;64.10;;;;;;4951198;28;114231;-82
2023/12/21 07:18:40;;;;;;;0.80;0.47;;;4.60;64.20;;;;;;4943067;28;115054;-82
2023/12/21 07:21:08;;;;;;;0.73;0.50;;;4.60;64.10;;;;;;4939322;28;114414;-83
2023/12/21 07:23:35;;;;;;;1.73;0.80;;;4.60;64.10;;;;;;4957896;28;114637;-83
2023/12/21 07:26:03;;;;;;;1.13;0.50;;;4.70;64.20;;;;;;4958277;28;114674;-83
2023/12/21 07:28:31;;;;;;;0.90;0.55;;;4.70;64.10;;;;;;4954517;28;115200;-83
2023/12/21 07:31:01;;;;;;;0.68;0.38;;;4.70;64.10;;;;;;4956642;28;114845;-83
2023/12/21 07:33:29;;;;;;;1.30;0.50;;;4.70;64.00;;;;;;4957006;28;114431;-82
2023/12/21 07:35:56;;;;;;;1.90;0.60;;;4.70;64.00;;;;;;4956733;28;114591;-83
2023/12/21 07:38:23;;;;;;;1.85;0.90;;;4.70;64.10;;;;;;4955808;28;115252;-84
2023/12/21 07:40:51;;;;;;;0.80;0.50;;;4.70;64.10;;;;;;4955892;28;114570;-83
2023/12/21 07:43:22;;;;;;;1.13;0.60;;;4.70;64.10;;;;;;4957221;28;114363;-85
2023/12/21 07:45:50;;;;;;;1.45;0.60;;;4.70;64.10;;;;;;4955085;28;114791;-83
2023/12/21 07:48:18;;;;;;;1.20;0.50;;;4.70;64.10;;;;;;4956202;28;115124;-84
2023/12/21 07:50:45;;;;;;;0.98;0.60;;;4.70;64.10;;;;;;4955377;28;114722;-82
2023/12/21 07:53:13;;;;;;;0.80;0.50;;;4.70;64.10;;;;;;4951908;28;114364;-83
2023/12/21 07:55:40;;;;;;;1.85;0.82;;;4.70;64.10;;;;;;4955615;28;114373;-82
2023/12/21 07:58:13;;;;;;;1.10;0.70;;;4.80;64.10;;;;;;4937112;28;115602;-81
2023/12/21 08:00:44;;;;;;;1.35;0.60;;;4.80;64.00;;;;;;4938518;28;114919;-83
2023/12/21 08:03:11;;;;;;;1.40;0.70;;;4.80;63.90;;;;;;4954761;28;117084;-83
2023/12/21 08:05:41;;;;;;;2.28;0.82;;;4.80;63.90;;;;;;4980358;28;114604;-83
2023/12/21 08:08:11;;;;;;;3.20;1.50;;;4.80;64.00;;;;;;4963156;28;115849;-82
2023/12/21 08:10:40;;;;;;;1.45;0.68;;;4.80;64.00;;;;;;4965638;28;114441;-83
2023/12/21 08:13:14;;;;;;;1.73;0.70;;;4.90;64.10;;;;;;4960172;28;114483;-83
2023/12/21 08:15:42;;;;;;;1.80;0.80;;;4.80;64.20;;;;;;4931672;28;114908;-83
2023/12/21 08:18:13;;;;;;;2.85;1.33;;;4.80;64.30;;;;;;4964632;28;115391;-84
2023/12/21 08:20:42;;;;;;;1.65;0.90;;;4.80;64.50;;;;;;4919618;28;114599;-84
2023/12/21 08:23:10;;;;;;;1.67;0.98;;;4.80;64.60;;;;;;4950888;28;114291;-83
2023/12/21 08:25:37;;;;;;;2.13;1.02;;;4.90;64.80;;;;;;4966379;28;114480;-84
2023/12/21 08:28:05;;;;;;;1.73;0.95;;;4.90;64.70;;;;;;4953081;28;115175;-84
2023/12/21 08:30:32;;;;;;;2.30;1.08;;;4.90;64.70;;;;;;4946807;28;115120;-83
2023/12/21 08:33:00;;;;;;;2.03;0.77;;;4.90;64.70;;;;;;4931241;28;114246;-83
2023/12/21 08:35:28;;;;;;;1.80;0.90;;;4.90;64.70;;;;;;4949181;28;114345;-83
2023/12/21 08:37:56;;;;;;;1.70;0.80;;;5.00;64.60;;;;;;4945199;28;115682;-83
2023/12/21 08:40:24;;;;;;;1.88;0.75;;;4.90;64.50;;;;;;4946684;28;114817;-84
2023/12/21 08:42:52;;;;;;;2.42;0.95;;;4.90;64.50;;;;;;4962613;28;114346;-82
2023/12/21 08:45:22;;;;;;;1.70;0.80;;;5.00;64.60;;;;;;4966979;28;114234;-83
2023/12/21 08:47:49;;;;;;;1.90;0.90;;;5.00;64.40;;;;;;4965620;28;115473;-83
2023/12/21 08:50:18;;;;;;;1.90;0.88;;;5.00;64.20;;;;;;4964479;28;114560;-83
2023/12/21 08:52:45;;;;;;;1.67;0.68;;;5.00;64.20;;;;;;4947358;28;114759;-83
2023/12/21 08:55:13;;;;;;;2.15;0.60;;;5.00;64.00;;;;;;4949623;28;114785;-84
2023/12/21 08:57:40;;;;;;;1.17;0.55;;;5.00;64.10;;;;;;4964339;28;118455;-82
2023/12/21 09:00:12;;;;;;;0.88;0.50;;;5.10;64.20;;;;;;4932289;28;115138;-83
2023/12/21 09:02:40;;;;;;;1.52;0.70;;;5.10;64.10;;;;;;4960626;28;114716;-83
2023/12/21 09:05:08;;;;;;;1.05;0.52;;;5.20;64.00;;;;;;4945833;28;114395;-84
2023/12/21 09:07:35;;;;;;;1.85;0.60;;;5.20;63.90;;;;;;4947365;28;116292;-84
2023/12/21 09:10:08;;;;;;;2.03;0.60;;;5.20;63.60;;;;;;4958327;28;114868;-83
2023/12/21 09:12:43;;;;;;;0.77;0.57;;;5.20;63.60;;;;;;4951156;28;114468;-84
2023/12/21 09:15:17;;;;;;;1.33;0.70;;;5.30;63.50;;;;;;4917142;28;114690;-82
2023/12/21 09:17:46;;;;;;;0.80;0.43;;;5.30;63.40;;;;;;4944671;28;116311;-82
2023/12/21 09:20:14;;;;;;;1.88;0.75;;;5.40;63.30;;;;;;4961884;28;118112;-83
2023/12/21 09:22:53;;;;;;;0.93;0.50;;;5.40;63.20;;;;;;4932931;28;114725;-84
2023/12/21 09:25:23;;;;;;;1.50;0.60;;;5.50;63.00;;;;;;4945556;28;114430;-83
2023/12/21 09:27:52;;;;;;;1.23;0.60;;;5.40;63.10;;;;;;4947525;28;116466;-82
2023/12/21 09:30:20;;;;;;;1.38;0.63;;;5.40;63.10;;;;;;4946086;28;114564;-82
2023/12/21 09:32:48;;;;;;;2.40;0.73;;;5.50;63.10;;;;;;4946222;28;114207;-83
2023/12/21 09:35:17;;;;;;;1.75;0.80;;;5.50;62.90;;;;;;4957371;28;114557;-82
2023/12/21 09:37:45;;;;;;;2.45;0.60;;;5.60;62.80;;;;;;4964109;28;115268;-82
2023/12/21 09:40:13;;;;;;;1.33;0.60;;;5.60;62.60;;;;;;4965244;28;114988;-83
2023/12/21 09:42:44;;;;;;;1.48;0.70;;;5.70;62.50;;;;;;4964899;28;114289;-83
2023/12/21 09:45:19;;;;;;;1.92;0.82;;;5.70;62.60;;;;;;4952653;28;114620;-84
2023/12/21 09:47:48;;;;;;;1.73;0.85;;;5.70;62.60;;;;;;4943527;28;115174;-82
2023/12/21 09:50:16;;;;;;;1.48;0.60;;;5.70;62.50;;;;;;4963706;28;114817;-84
2023/12/21 09:52:44;;;;;;;1.27;0.70;;;5.70;62.60;;;;;;4948962;28;114430;-83
2023/12/21 09:55:11;;;;;;;1.92;0.85;;;5.70;62.70;;;;;;4964716;28;114606;-84
2023/12/21 09:57:39;;;;;;;1.80;0.85;;;5.70;62.70;;;;;;4913568;28;116979;-82
2023/12/21 10:00:07;;;;;;;2.97;1.00;;;5.80;62.80;;;;;;4944355;28;114805;-84
2023/12/21 10:02:43;;;;;;;2.50;1.10;;;5.80;63.00;;;;;;4945030;28;114439;-84
2023/12/21 10:05:11;;;;;;;1.17;0.70;;;5.80;62.90;;;;;;4945880;28;114541;-83
2023/12/21 10:07:39;;;;;;;1.08;0.70;;;5.80;62.90;;;;;;4942568;28;116171;-84
2023/12/21 10:10:08;;;;;;;1.23;0.60;;;5.80;63.00;;;;;;4950342;28;114482;-83
2023/12/21 10:12:41;;;;;;;1.95;0.88;;;5.80;63.10;;;;;;4948253;28;114106;-82
2023/12/21 10:15:10;;;;;;;1.80;1.00;;;5.80;63.30;;;;;;4951950;28;114585;-82
2023/12/21 10:17:38;;;;;;;1.40;0.70;;;5.70;63.50;;;;;;4949129;28;115346;-83
2023/12/21 10:20:11;;;;;;;1.52;0.77;;;5.70;63.80;;;;;;4947943;28;117371;-83
2023/12/21 10:22:43;;;;;;;1.10;0.60;;;5.70;64.00;;;;;;4949127;28;114380;-82
2023/12/21 10:25:11;;;;;;;1.88;0.60;;;5.70;64.00;;;;;;4936055;28;114556;-83
2023/12/21 10:27:40;;;;;;;1.80;0.80;;;5.60;64.10;;;;;;4947394;28;115730;-82
2023/12/21 10:30:08;;;;;;;1.10;0.63;;;5.60;64.30;;;;;;4963822;28;115045;-83
2023/12/21 10:32:37;;;;;;;0.95;0.60;;;5.60;64.40;;;;;;4948253;28;114508;-83
2023/12/21 10:35:04;;;;;;;1.65;0.70;;;5.60;64.50;;;;;;4948584;28;114375;-84
2023/12/21 10:37:32;;;;;;;2.00;0.90;;;5.50;64.50;;;;;;4947690;28;115087;-84
2023/12/21 10:40:00;;;;;;;1.83;0.80;;;5.60;64.50;;;;;;4947874;28;114567;-83
2023/12/21 10:42:28;;;;;;;1.70;0.68;;;5.60;64.30;;;;;;4949408;28;114351;-84
2023/12/21 10:44:56;;;;;;;1.95;0.77;;;5.50;64.30;;;;;;4931939;28;114260;-83
2023/12/21 10:47:23;;;;;;;1.92;0.80;;;5.50;64.20;;;;;;4963151;28;115197;-84
2023/12/21 10:49:51;;;;;;;1.15;0.55;;;5.50;64.30;;;;;;4947520;28;114679;-84
2023/12/21 10:52:19;;;;;;;1.08;0.65;;;5.50;64.40;;;;;;4948018;28;114455;-83
2023/12/21 10:54:46;;;;;;;1.65;0.60;;;5.60;64.20;;;;;;4964465;28;114742;-83
2023/12/21 10:57:15;;;;;;;1.73;0.80;;;5.50;64.10;;;;;;4948315;28;115184;-84
2023/12/21 10:59:43;;;;;;;5.93;1.90;;;5.60;64.30;;;;;;4946810;28;114710;-82
2023/12/21 11:02:13;;;;;;;6.22;2.25;;;5.60;64.40;;;;;;4948072;28;114309;-83
2023/12/21 11:04:42;;;;;;;5.35;2.72;;;5.60;64.70;;;;;;4948421;28;114263;-83
2023/12/21 11:07:09;;;;;;;4.90;2.30;;;5.50;64.60;;;;;;4989562;28;115087;-84
2023/12/21 11:09:37;;;;;;;8.63;3.20;;;5.50;64.70;;;;;;4963913;28;114735;-84
2023/12/21 11:12:06;;;;;;;8.18;3.70;;;5.50;64.90;;;;;;4947398;28;114385;-84
2023/12/21 11:14:33;;;;;;;5.38;3.20;;;5.50;64.90;;;;;;4948281;28;114391;-84
2023/12/21 11:17:01;;;;;;;7.63;3.60;;;5.40;64.70;;;;;;4946368;28;115319;-83
2023/12/21 11:19:35;;;;;;;6.75;3.47;;;5.40;64.80;;;;;;4943300;28;114825;-84
2023/12/21 11:22:04;;;;;;;5.05;2.60;;;5.40;65.00;;;;;;4947096;28;114576;-84
2023/12/21 11:24:31;;;;;;;4.47;2.00;;;5.30;64.90;;;;;;4946978;28;114483;-84
2023/12/21 11:27:01;;;;;;;4.93;2.33;;;5.30;64.90;;;;;;4915302;28;115034;-84
2023/12/21 11:29:29;;;;;;;1.90;0.90;;;5.20;64.90;;;;;;4964248;28;114863;-84
2023/12/21 11:31:56;;;;;;;1.70;0.70;;;5.20;64.80;;;;;;4948107;28;114197;-84
2023/12/21 11:34:40;;;;;;;2.50;0.68;;;5.30;64.70;;;;;;4949017;28;114495;-84
2023/12/21 11:37:25;;;;;;;3.05;1.23;;;5.40;64.70;;;;;;4946175;28;118138;-83
2023/12/21 11:39:59;;;;;;;2.10;0.63;;;5.40;64.60;;;;;;4915458;28;115825;-82
2023/12/21 11:42:34;;;;;;;0.95;0.55;;;5.40;64.50;;;;;;4948149;28;114302;-84
2023/12/21 11:45:02;;;;;;;1.67;0.60;;;5.50;64.40;;;;;;4930460;28;114415;-84
2023/12/21 11:47:32;;;;;;;0.98;0.52;;;5.50;64.10;;;;;;4945288;28;116227;-84
2023/12/21 11:50:09;;;;;;;1.00;0.50;;;5.60;64.10;;;;;;4945929;28;118512;-84
2023/12/21 11:52:38;;;;;;;0.95;0.60;;;5.70;63.90;;;;;;4949969;28;114404;-84
2023/12/21 11:55:06;;;;;;;3.50;1.00;;;5.60;63.80;;;;;;4951280;28;114981;-84
2023/12/21 11:57:39;;;;;;;4.53;1.67;;;5.70;63.70;;;;;;4930466;28;115076;-84
2023/12/21 12:00:16;;;;;;;7.35;4.32;;;5.70;63.60;;;;;;4946310;28;114927;-86
2023/12/21 12:02:48;;;;;;;8.73;4.20;;;5.70;63.50;;;;;;4946681;28;114414;-85
2023/12/21 12:05:24;;;;;;;8.20;2.95;;;5.50;63.60;;;;;;4931684;28;114457;-83
2023/12/21 12:07:51;;;;;;;8.30;4.20;;;5.40;63.90;;;;;;4946970;28;115602;-83
2023/12/21 12:10:19;;;;;;;5.43;2.80;;;5.30;64.10;;;;;;4946976;28;115400;-84
2023/12/21 12:12:46;;;;;;;2.90;1.25;;;5.30;64.30;;;;;;4962205;28;114387;-85
2023/12/21 12:15:17;;;;;;;1.52;0.68;;;5.30;64.20;;;;;;4946808;28;114356;-82
2023/12/21 12:17:44;;;;;;;1.23;0.70;;;5.40;64.10;;;;;;4978172;28;115124;-83
2023/12/21 12:20:13;;;;;;;2.20;1.05;;;5.50;64.00;;;;;;4962338;28;114651;-83
2023/12/21 12:22:41;;;;;;;4.95;2.15;;;5.60;64.00;;;;;;4963002;28;115130;-84
2023/12/21 12:25:08;;;;;;;5.30;2.67;;;5.60;63.90;;;;;;4946323;28;114374;-84
2023/12/21 12:27:36;;;;;;;6.13;2.38;;;5.60;63.80;;;;;;4944922;28;115244;-83
2023/12/21 12:30:04;;;;;;;8.23;3.95;;;5.50;63.80;;;;;;4929849;28;114900;-83
2023/12/21 12:32:31;;;;;;;5.78;2.00;;;5.50;63.90;;;;;;4944961;28;114570;-83
2023/12/21 12:34:59;;;;;;;4.80;1.88;;;5.40;63.90;;;;;;4944621;28;114600;-83
2023/12/21 12:37:26;;;;;;;6.72;2.65;;;5.40;63.90;;;;;;4943994;28;115156;-83
2023/12/21 12:39:56;;;;;;;5.72;2.83;;;5.40;64.10;;;;;;4928477;28;114737;-82
2023/12/21 12:42:23;;;;;;;4.28;1.83;;;5.50;64.10;;;;;;4914398;28;114535;-84
2023/12/21 12:44:51;;;;;;;1.33;0.60;;;5.50;64.10;;;;;;4946945;28;114871;-82
2023/12/21 12:47:20;;;;;;;1.95;0.98;;;5.50;63.80;;;;;;4928211;28;115179;-83
2023/12/21 12:49:47;;;;;;;1.77;0.80;;;5.50;63.70;;;;;;4929060;28;114762;-83
2023/12/21 12:52:19;;;;;;;1.77;0.82;;;5.60;63.70;;;;;;4945310;28;114467;-83
2023/12/21 12:54:46;;;;;;;1.83;0.80;;;5.60;63.70;;;;;;4937235;28;114597;-84